CheckWX is a tool to help pilots better visualize weather data.  It is not intended as a substitute for an official pre-flight weather briefing.

12:10:36 UTC

KBHB METAR
Hancock County-Bar Harbor Airport
Bar Harbor, Maine, USA
Current

15 mins ago

KBHB 221156Z AUTO 24005KT 8SM OVC004 19/19 A2982 RMK AO2 SLP099 60001 70060 T01940194 10194 20189 53016
Observed
Aug-22 @ 11:56 UTC
Wind
  • 240° at 5 KTS
Visibility
8 SM
Flight Rules
LIFR
Cloud Levels
  • Overcast at 400' AGL
Temperature
19°C / 66°F
Dewpoint
19°C / 66°F
Humidity
100%
Altimeter
29.82" Hg
Pressure
1009.82 hPa
24 Hour Rain
0.6"
Previous

1 hour ago

KBHB 221056Z AUTO 22003KT 8SM OVC004 19/19 A2979 RMK AO2 SLP091 T01940194
Observed
Aug-22 @ 10:56 UTC
Wind
  • 220° at 3 KTS
Visibility
8 SM
Flight Rules
LIFR
Cloud Levels
  • Overcast at 400' AGL
Temperature
19°C / 66°F
Dewpoint
19°C / 66°F
Humidity
100%
Altimeter
29.79" Hg
Pressure
1008.82 hPa
Previous

2 hours ago

KBHB 221009Z AUTO 00000KT 3SM BR OVC004 19/19 A2979 RMK AO2 CIG 002V006
Observed
Aug-22 @ 10:09 UTC
Visibility
3 SM
Flight Rules
LIFR
Conditions
Mist
Cloud Levels
  • Overcast at 400' AGL
Temperature
19°C / 66°F
Dewpoint
19°C / 66°F
Humidity
100%
Altimeter
29.79" Hg
Pressure
1008.82 hPa